Main page
METAR-TAF:

METAR-TAF

Airports :

Oil platform

Euro, Netherlands

latitude: 51-59-52N, longitude: 3-16-30E, elevation: 18 m

Current weather observation

The report was made 20 minutes ago, at 10:25 UTC
Wind 9 kt from the North
Temperature 13°C
Humidity 82%
Pressure 1025 hPa

METAR: EHSA 241025Z AUTO 36009KT //// // ///////// 13/10 Q1025 RE// W14/H10

Time: 12:45 (10:45 UTC)


TAF: missing

Weather observations and forecasts of more than 4000 airports (METAR and TAF reports).

The available stations are represented by yellow and red dots on the map.

Hover mouse over dot to see the name of the station.

Then click to see weather observations and forecasts.

To change the map : click on the green buttons with a black cross to zoom in, on the green button with a dash to zoom out, or on the green arrows for adjacent maps.


METAR-TAF: